createdAt,value
2019-02-27T00:05:10.803Z,99566.23
2019-02-27T00:07:40.136Z,99567.37
2019-02-27T00:10:09.647Z,99573.11
2019-02-27T00:12:38.953Z,99569.41
2019-02-27T00:15:08.502Z,99574.56
2019-02-27T00:17:37.848Z,99575.52
2019-02-27T00:23:09.379Z,99568.55
2019-02-27T00:25:38.689Z,99563.78
2019-02-27T00:28:07.994Z,99556.44
2019-02-27T00:30:38.135Z,99558.47
2019-02-27T00:33:28.459Z,99556.15
2019-02-27T00:36:14.831Z,99557.61
2019-02-27T00:38:43.348Z,99559.61
2019-02-27T00:41:13.066Z,99563.32
2019-02-27T00:44:02.019Z,99559.87
2019-02-27T00:46:31.408Z,99552.08
2019-02-27T00:49:00.717Z,99560.52
2019-02-27T00:51:30.024Z,99553.41
2019-02-27T00:53:59.348Z,99547.91
2019-02-27T00:56:28.651Z,99555.94
2019-02-27T00:58:59.873Z,99555.80
2019-02-27T01:01:27.381Z,99557.36
2019-02-27T01:03:59.256Z,99552.68
2019-02-27T01:06:47.569Z,99559.73
2019-02-27T01:09:37.207Z,99564.00
2019-02-27T01:12:25.268Z,99566.09
2019-02-27T01:15:13.663Z,99559.16
2019-02-27T01:17:43.006Z,99561.23
2019-02-27T01:20:12.563Z,99562.22
2019-02-27T01:25:47.622Z,99561.86
2019-02-27T01:28:16.930Z,99563.78
2019-02-27T01:30:46.245Z,99561.03
2019-02-27T01:33:15.560Z,99565.93
2019-02-27T01:35:44.906Z,99560.46
2019-02-27T01:38:14.225Z,99564.64
2019-02-27T01:40:43.539Z,99567.91
2019-02-27T01:43:12.998Z,99557.95
2019-02-27T01:45:41.401Z,99566.09
2019-02-27T01:48:09.891Z,99558.80
2019-02-27T01:50:50.176Z,99557.85
2019-02-27T01:53:18.578Z,99560.06
2019-02-27T01:55:47.893Z,99553.83
2019-02-27T01:58:17.208Z,99557.55
2019-02-27T02:00:46.525Z,99556.15
2019-02-27T02:03:15.846Z,99559.80
2019-02-27T02:05:45.355Z,99557.56
2019-02-27T02:08:14.781Z,99556.09
2019-02-27T02:10:43.195Z,99561.08
2019-02-27T02:13:33.474Z,99564.29
2019-02-27T02:16:40.933Z,99568.91
2019-02-27T02:19:48.974Z,99577.27
2019-02-27T02:22:56.223Z,99575.64
2019-02-27T02:26:06.158Z,99578.08
2019-02-27T02:29:14.310Z,99574.93
2019-02-27T02:31:51.753Z,99568.31
2019-02-27T02:34:58.946Z,99573.87
2019-02-27T02:37:51.622Z,99571.70
2019-02-27T02:40:59.659Z,99570.59
2019-02-27T02:44:06.861Z,99576.34
2019-02-27T02:47:08.221Z,99571.14
2019-02-27T02:50:19.223Z,99577.03
2019-02-27T02:53:27.280Z,99572.41
2019-02-27T02:56:34.516Z,99593.73
2019-02-27T02:59:41.674Z,99598.22
2019-02-27T03:02:23.561Z,99593.14
2019-02-27T03:05:47.350Z,99592.29
2019-02-27T03:08:40.471Z,99593.38
2019-02-27T03:11:34.232Z,99600.35
2019-02-27T03:14:41.486Z,99603.23
2019-02-27T03:17:35.658Z,99591.66
2019-02-27T03:20:42.796Z,99591.01
2019-02-27T03:23:33.784Z,99595.28
2019-02-27T03:26:26.653Z,99594.55
2019-02-27T03:29:33.967Z,99597.38
2019-02-27T03:32:43.805Z,99596.14
2019-02-27T03:35:52.019Z,99598.69
2019-02-27T03:39:00.320Z,99601.36
2019-02-27T03:42:07.715Z,99606.64
2019-02-27T03:45:14.862Z,99609.78
2019-02-27T03:48:09.630Z,99612.90
2019-02-27T03:51:01.111Z,99617.12
2019-02-27T03:53:55.226Z,99611.15
2019-02-27T03:56:51.059Z,99616.36
2019-02-27T03:59:58.200Z,99620.37
2019-02-27T04:02:49.472Z,99619.48
2019-02-27T04:05:57.511Z,99622.17
2019-02-27T04:09:06.163Z,99616.28
2019-02-27T04:11:41.492Z,99625.80
2019-02-27T04:14:44.139Z,99632.91
2019-02-27T04:17:13.445Z,99636.66
2019-02-27T04:19:41.860Z,99635.49
2019-02-27T04:22:10.252Z,99630.70
2019-02-27T04:24:38.725Z,99638.39
2019-02-27T04:27:08.023Z,99634.17
2019-02-27T04:29:40.847Z,99636.27
2019-02-27T04:32:26.538Z,99637.00
2019-02-27T04:34:54.958Z,99638.25
2019-02-27T04:37:24.275Z,99647.24
2019-02-27T04:39:53.628Z,99647.22
2019-02-27T04:42:23.012Z,99650.45
2019-02-27T04:45:12.418Z,99647.77
2019-02-27T04:48:00.582Z,99641.50
2019-02-27T04:50:29.887Z,99639.58
2019-02-27T04:52:59.204Z,99639.47
2019-02-27T04:55:28.523Z,99647.74
2019-02-27T04:57:57.835Z,99658.81
2019-02-27T05:00:27.153Z,99661.51
2019-02-27T05:02:56.484Z,99662.95
2019-02-27T05:05:25.800Z,99671.80
2019-02-27T05:07:54.894Z,99672.00
2019-02-27T05:10:43.440Z,99669.11
2019-02-27T05:13:12.767Z,99680.48
2019-02-27T05:15:42.075Z,99687.28
2019-02-27T05:18:11.387Z,99684.97
2019-02-27T05:20:44.806Z,99695.41
2019-02-27T05:23:30.869Z,99704.30
2019-02-27T05:26:19.148Z,99705.60
2019-02-27T05:28:48.472Z,99713.79
2019-02-27T05:31:19.006Z,99715.35
2019-02-27T05:34:06.993Z,99723.20
2019-02-27T05:36:35.402Z,99732.59
2019-02-27T05:39:05.745Z,99734.94
2019-02-27T05:44:36.000Z,99742.91
2019-02-27T05:47:05.315Z,99756.19
2019-02-27T05:49:34.660Z,99756.20
2019-02-27T05:52:03.973Z,99761.55
2019-02-27T05:54:33.293Z,99761.18
2019-02-27T05:57:02.614Z,99771.41
2019-02-27T05:59:31.923Z,99771.34
2019-02-27T06:02:01.259Z,99777.05
2019-02-27T06:04:30.562Z,99778.42
2019-02-27T06:06:59.878Z,99781.39
2019-02-27T06:09:29.184Z,99778.96
2019-02-27T06:11:57.673Z,99779.23
2019-02-27T06:14:26.179Z,99778.17
2019-02-27T06:16:55.489Z,99777.88
2019-02-27T06:19:24.786Z,99791.28
2019-02-27T06:21:56.356Z,99794.80
2019-02-27T06:24:45.577Z,99801.95
2019-02-27T06:27:32.556Z,99805.00
2019-02-27T06:30:01.881Z,99814.97
2019-02-27T06:32:31.196Z,99818.41
2019-02-27T06:34:59.984Z,99831.70
2019-02-27T06:37:50.769Z,99831.99
2019-02-27T06:40:42.045Z,99834.05
2019-02-27T06:43:27.873Z,99832.44
2019-02-27T06:46:17.383Z,99834.48
2019-02-27T06:49:05.682Z,99837.58
2019-02-27T06:51:35.874Z,99838.45
2019-02-27T06:54:24.215Z,99844.59
2019-02-27T06:56:52.659Z,99836.45
2019-02-27T06:59:24.627Z,99837.22
2019-02-27T07:02:10.332Z,99845.16
2019-02-27T07:04:39.456Z,99839.80
2019-02-27T07:07:28.776Z,99842.48
2019-02-27T07:10:20.006Z,99841.92
2019-02-27T07:12:47.839Z,99846.45
2019-02-27T07:15:17.355Z,99847.19
2019-02-27T07:17:45.994Z,99855.95
2019-02-27T07:20:15.432Z,99846.94
2019-02-27T07:22:46.512Z,99856.27
2019-02-27T07:25:14.566Z,99852.84
2019-02-27T07:27:43.079Z,99866.82
2019-02-27T07:30:13.865Z,99852.17
2019-02-27T07:32:42.294Z,99861.85
2019-02-27T07:35:11.763Z,99861.55
2019-02-27T07:37:41.201Z,99859.55
2019-02-27T07:40:12.049Z,99862.22
2019-02-27T07:42:41.464Z,99868.72
2019-02-27T07:45:13.153Z,99868.77
2019-02-27T07:47:41.660Z,99868.64
2019-02-27T07:50:12.781Z,99873.78
2019-02-27T07:52:41.147Z,99876.71
2019-02-27T07:55:21.300Z,99874.08
2019-02-27T07:57:41.753Z,99887.64
2019-02-27T08:00:15.138Z,99886.71
2019-02-27T08:02:44.346Z,99890.18
2019-02-27T08:05:13.770Z,99882.50
2019-02-27T08:07:43.190Z,99887.03
2019-02-27T08:10:14.716Z,99895.60
2019-02-27T08:12:43.125Z,99894.73
2019-02-27T08:15:13.664Z,99894.17
2019-02-27T08:17:42.344Z,99899.34
2019-02-27T08:23:15.543Z,99907.17
2019-02-27T08:26:05.193Z,99914.44
2019-02-27T08:28:53.066Z,99908.78
2019-02-27T08:31:22.408Z,99910.27
2019-02-27T08:33:50.826Z,99918.45
2019-02-27T08:36:20.134Z,99920.14
2019-02-27T08:38:49.477Z,99914.53
2019-02-27T08:41:17.896Z,99917.78
2019-02-27T08:43:46.332Z,99914.16
2019-02-27T08:46:15.639Z,99924.39
2019-02-27T08:48:44.954Z,99926.34
2019-02-27T08:51:14.289Z,99932.55
2019-02-27T08:53:43.608Z,99938.71
2019-02-27T08:56:12.992Z,99938.66
2019-02-27T08:58:42.271Z,99946.13
2019-02-27T09:01:11.912Z,99951.78
2019-02-27T09:03:40.348Z,99947.92
2019-02-27T09:06:08.874Z,99944.25
2019-02-27T09:08:38.197Z,99947.78
2019-02-27T09:11:07.518Z,99953.69
2019-02-27T09:13:36.826Z,99960.95
2019-02-27T09:16:05.326Z,99966.37
2019-02-27T09:18:36.451Z,99964.70
2019-02-27T09:21:24.951Z,99972.65
2019-02-27T09:24:13.154Z,99973.88
2019-02-27T09:26:42.399Z,99974.95
2019-02-27T09:29:30.955Z,99979.47
2019-02-27T09:32:00.272Z,99985.26
2019-02-27T09:34:29.624Z,99986.83
2019-02-27T09:36:58.923Z,99988.63
2019-02-27T09:39:31.246Z,99981.66
2019-02-27T09:42:19.128Z,99985.84
2019-02-27T09:45:35.117Z,99994.30
2019-02-27T09:48:04.139Z,99987.81
2019-02-27T09:50:37.389Z,99994.77
2019-02-27T09:53:06.041Z,99986.83
2019-02-27T09:55:35.390Z,99985.06
2019-02-27T09:58:10.039Z,99989.98
2019-02-27T10:01:00.294Z,99990.11
2019-02-27T10:03:28.162Z,99987.67
2019-02-27T10:05:57.525Z,99989.38
2019-02-27T10:08:26.847Z,99984.45
2019-02-27T10:10:56.160Z,99982.97
2019-02-27T10:13:24.608Z,99982.28
2019-02-27T10:15:53.047Z,99982.08
2019-02-27T10:18:22.389Z,99979.16
2019-02-27T10:20:51.704Z,99979.67
2019-02-27T10:23:21.043Z,99975.11
2019-02-27T10:25:50.402Z,99965.64
2019-02-27T10:28:19.723Z,99965.19
2019-02-27T10:30:49.945Z,99962.28
2019-02-27T10:33:38.283Z,99962.99
2019-02-27T10:36:07.622Z,99952.48
2019-02-27T10:38:40.262Z,99944.34
2019-02-27T10:41:25.338Z,99945.75
2019-02-27T10:43:56.492Z,99949.14
2019-02-27T10:46:43.888Z,99949.09
2019-02-27T10:49:13.199Z,99948.16
2019-02-27T10:51:43.742Z,99950.05
2019-02-27T10:54:12.944Z,99953.30
2019-02-27T10:56:42.263Z,99955.02
2019-02-27T10:59:10.787Z,99947.13
2019-02-27T11:01:40.124Z,99954.09
2019-02-27T11:04:09.450Z,99958.30
2019-02-27T11:06:38.402Z,99951.81
2019-02-27T11:12:17.572Z,99947.73
2019-02-27T11:14:46.093Z,99940.20
2019-02-27T11:17:15.416Z,99940.70
2019-02-27T11:19:44.748Z,99939.05
2019-02-27T11:22:14.060Z,99936.88
2019-02-27T11:24:43.390Z,99938.00
2019-02-27T11:27:12.711Z,99945.03
2019-02-27T11:29:42.026Z,99948.81
2019-02-27T11:32:10.439Z,99941.48
2019-02-27T11:34:38.963Z,99930.77
2019-02-27T11:37:12.705Z,99934.22
2019-02-27T11:39:56.611Z,99933.66
2019-02-27T11:42:25.969Z,99935.23
2019-02-27T11:44:55.297Z,99934.73
2019-02-27T11:47:23.830Z,99930.84
2019-02-27T11:49:53.200Z,99932.72
2019-02-27T11:52:21.720Z,99932.11
2019-02-27T15:38:32.272Z,99959.98
2019-02-27T15:41:03.165Z,99954.75
2019-02-27T15:43:59.834Z,99959.25
2019-02-27T15:46:40.096Z,99953.16
2019-02-27T15:49:09.413Z,99956.42
2019-02-27T15:51:38.025Z,99964.91
2019-02-27T15:54:06.690Z,99956.01
2019-02-27T15:56:36.020Z,99959.41
2019-02-27T15:59:08.110Z,99964.63
2019-02-27T16:01:54.556Z,99959.91
2019-02-27T16:04:24.113Z,99966.16
2019-02-27T16:06:53.444Z,99969.86
2019-02-27T16:09:22.778Z,99968.49
2019-02-27T16:11:52.430Z,99975.36
2019-02-27T16:14:42.850Z,99978.00
2019-02-27T16:17:31.419Z,99981.70
2019-02-27T16:20:19.280Z,99989.75
2019-02-27T16:22:48.616Z,99986.41
2019-02-27T16:25:19.940Z,99985.27
2019-02-27T16:28:11.472Z,99989.23
2019-02-27T16:30:57.519Z,99986.68
2019-02-27T16:33:28.552Z,99991.20
2019-02-27T16:36:16.450Z,99994.96
2019-02-27T16:39:07.390Z,100002.13
2019-02-27T16:41:54.975Z,100000.33
2019-02-27T16:44:24.292Z,100010.09
2019-02-27T16:46:53.619Z,100007.70
2019-02-27T16:49:22.960Z,100009.84
2019-02-27T16:51:52.270Z,100015.30
2019-02-27T16:54:20.990Z,100024.83
2019-02-27T16:56:51.046Z,100023.58
2019-02-27T16:59:42.261Z,100019.84
2019-02-27T17:02:28.743Z,100022.45
2019-02-27T17:04:58.065Z,100017.78
2019-02-27T17:07:27.378Z,100010.75
2019-02-27T17:09:56.698Z,100008.38
2019-02-27T17:12:26.023Z,100011.38
2019-02-27T17:14:58.391Z,100011.30
2019-02-27T17:17:44.560Z,100013.05
2019-02-27T17:20:14.674Z,100007.07
2019-02-27T17:22:43.594Z,100010.78
2019-02-27T17:25:12.364Z,100004.09
2019-02-27T17:27:41.802Z,100001.21
2019-02-27T17:30:14.635Z,100000.61
2019-02-27T17:32:43.698Z,99993.37
2019-02-27T17:37:56.054Z,99995.08
2019-02-27T17:40:24.889Z,99994.71
2019-02-27T17:42:54.506Z,99992.72
2019-02-27T17:45:23.271Z,99990.66
2019-02-27T17:47:52.657Z,99989.98
2019-02-27T17:50:22.176Z,99988.54
2019-02-27T17:52:51.693Z,99988.67
2019-02-27T17:55:21.005Z,99980.99
2019-02-27T17:57:50.342Z,99976.50
2019-02-27T18:03:22.640Z,99994.00
2019-02-27T18:05:51.961Z,99997.84
2019-02-27T18:08:21.280Z,99986.80
2019-02-27T18:10:50.646Z,99985.48
2019-02-27T18:13:19.974Z,99990.16
2019-02-27T18:15:49.354Z,99989.45
2019-02-27T18:18:18.679Z,99995.30
2019-02-27T18:20:47.398Z,99994.27
2019-02-27T18:23:16.006Z,99992.20
2019-02-27T18:25:45.324Z,99991.28
2019-02-27T18:28:14.691Z,99982.12
2019-02-27T18:30:44.111Z,99981.98
2019-02-27T18:33:14.801Z,99976.21
2019-02-27T18:36:15.742Z,99975.41
2019-02-27T18:38:44.459Z,99975.03
2019-02-27T18:41:14.488Z,99964.14
2019-02-27T18:44:04.682Z,99976.55
2019-02-27T18:46:52.234Z,99981.16
2019-02-27T18:49:21.560Z,99979.50
2019-02-27T18:51:50.216Z,99978.41
2019-02-27T18:54:21.700Z,99978.36
2019-02-27T18:57:07.951Z,99975.30
2019-02-27T18:59:37.262Z,99978.66
2019-02-27T19:02:27.752Z,99979.48
2019-02-27T19:04:57.084Z,99971.06
2019-02-27T19:07:26.412Z,99978.03
2019-02-27T19:09:55.740Z,99972.08
2019-02-27T19:12:28.531Z,99973.56
2019-02-27T19:18:18.392Z,99980.33
2019-02-27T19:20:47.708Z,99971.78
2019-02-27T19:23:18.352Z,99966.12
2019-02-27T19:26:09.409Z,99965.34
2019-02-27T19:28:36.866Z,99970.48
2019-02-27T19:31:05.592Z,99970.77
2019-02-27T19:33:35.788Z,99960.83
2019-02-27T19:36:24.136Z,99960.92
2019-02-27T19:38:52.751Z,99957.97
2019-02-27T19:41:21.357Z,99961.66
2019-02-27T19:43:54.940Z,99963.41
2019-02-27T19:46:39.203Z,99970.05
2019-02-27T19:49:08.519Z,99968.31
2019-02-27T19:51:37.838Z,99967.12
2019-02-27T19:54:07.260Z,99973.66
2019-02-27T19:56:36.574Z,99974.47
2019-02-27T19:59:06.093Z,99977.13
2019-02-27T20:01:34.793Z,99973.70
2019-02-27T20:04:03.403Z,99979.13
2019-02-27T20:06:32.051Z,99972.53
2019-02-27T20:09:01.371Z,99968.70
2019-02-27T20:14:14.160Z,99955.80
2019-02-27T20:16:43.666Z,99957.92
2019-02-27T20:19:21.988Z,99952.45
2019-02-27T20:22:02.175Z,99954.25
2019-02-27T20:24:32.458Z,99943.20
2019-02-27T20:27:21.028Z,99943.56
2019-02-27T20:29:49.739Z,99948.92
2019-02-27T20:32:19.079Z,99951.03
2019-02-27T20:34:48.455Z,99957.13
2019-02-27T20:37:17.882Z,99957.18
2019-02-27T20:39:46.699Z,99962.72
2019-02-27T20:42:15.342Z,99953.31
2019-02-27T20:44:44.652Z,99952.95
2019-02-27T20:47:13.370Z,99945.12
2019-02-27T20:49:44.730Z,99946.91
2019-02-27T20:52:31.910Z,99942.03
2019-02-27T20:55:01.224Z,99934.22
2019-02-27T20:57:30.560Z,99937.60
2019-02-27T21:00:02.152Z,99932.77
2019-02-27T21:02:50.367Z,99929.02
2019-02-27T21:05:41.098Z,99939.20
2019-02-27T21:08:27.659Z,99927.38
2019-02-27T21:10:56.999Z,99919.25
2019-02-27T21:13:26.301Z,99915.95
2019-02-27T21:15:55.629Z,99920.53
2019-02-27T21:18:25.158Z,99916.02
2019-02-27T21:20:54.475Z,99917.96
2019-02-27T21:23:23.932Z,99913.66
2019-02-27T21:25:53.253Z,99905.02
2019-02-27T21:28:22.568Z,99904.29
2019-02-27T21:30:52.465Z,99903.27
2019-02-27T21:33:21.815Z,99898.87
2019-02-27T21:35:50.519Z,99891.16
2019-02-27T21:38:19.841Z,99890.30
2019-02-27T21:40:48.457Z,99885.41
2019-02-27T21:43:17.775Z,99877.80
2019-02-27T21:45:47.102Z,99873.40
2019-02-27T21:48:16.516Z,99870.06
2019-02-27T21:50:45.862Z,99866.14
2019-02-27T21:53:14.772Z,99870.78
2019-02-27T21:55:44.918Z,99871.59
2019-02-27T21:58:33.337Z,99862.25
2019-02-27T22:01:02.991Z,99857.09
2019-02-27T22:03:31.599Z,99857.84
2019-02-27T22:06:00.217Z,99853.72
2019-02-27T22:08:29.584Z,99852.96
2019-02-27T22:10:58.203Z,99851.94
2019-02-27T22:13:30.295Z,99857.69
2019-02-27T22:15:58.061Z,99855.89
2019-02-27T22:18:26.766Z,99858.19
2019-02-27T22:20:59.423Z,99854.34
2019-02-27T22:23:28.330Z,99847.09
2019-02-27T22:26:15.999Z,99851.18
2019-02-27T22:28:45.310Z,99849.52
2019-02-27T22:31:13.962Z,99843.11
2019-02-27T22:33:42.464Z,99848.33
2019-02-27T22:36:12.771Z,99846.90
2019-02-27T22:41:44.472Z,99844.89
2019-02-27T22:44:13.967Z,99847.47
2019-02-27T22:46:43.304Z,99844.29
2019-02-27T22:54:38.386Z,99849.73
2019-02-27T22:57:07.702Z,99845.19
2019-02-27T22:59:37.414Z,99848.68
2019-02-27T23:02:25.686Z,99851.44
2019-02-27T23:04:54.286Z,99860.55
2019-02-27T23:07:23.647Z,99859.13
2019-02-27T23:12:55.258Z,99859.55
2019-02-27T23:18:27.444Z,99863.53
2019-02-27T23:20:56.171Z,99866.00
2019-02-27T23:23:25.583Z,99859.78
2019-02-27T23:25:55.031Z,99859.38
2019-02-27T23:28:24.352Z,99858.38
2019-02-27T23:30:53.766Z,99858.36
2019-02-27T23:33:24.688Z,99863.09
2019-02-27T23:36:12.290Z,99859.69
2019-02-27T23:38:41.619Z,99865.01
2019-02-27T23:41:10.925Z,99864.44
2019-02-27T23:43:39.529Z,99862.09
2019-02-27T23:46:08.130Z,99859.47
2019-02-27T23:48:37.501Z,99857.19
2019-02-27T23:51:06.810Z,99860.27
2019-02-27T23:53:36.123Z,99863.05
2019-02-27T23:56:05.466Z,99858.59
2019-02-27T23:58:34.779Z,99861.47
